createdAt,value
2022-11-10T00:00:57.964Z,97541.16
2022-11-10T00:03:44.901Z,97551.72
2022-11-10T00:06:32.076Z,97546.44
2022-11-10T00:09:19.273Z,97552.69
2022-11-10T00:12:06.981Z,97562.28
2022-11-10T00:15:11.633Z,97557.00
2022-11-10T00:18:02.319Z,97561.59
2022-11-10T00:20:49.629Z,97560.63
2022-11-10T00:23:36.975Z,97562.28
2022-11-10T00:26:24.389Z,97563.97
2022-11-10T00:29:11.136Z,97564.09
2022-11-10T00:31:58.493Z,97569.50
2022-11-10T00:34:47.224Z,97574.66
2022-11-10T00:37:34.640Z,97575.88
2022-11-10T00:40:21.727Z,97584.38
2022-11-10T00:43:09.228Z,97582.84
2022-11-10T00:45:56.407Z,97585.34
2022-11-10T00:48:43.523Z,97591.34
2022-11-10T00:51:31.973Z,97597.59
2022-11-10T00:54:19.100Z,97590.63
2022-11-10T00:57:06.285Z,97591.59
2022-11-10T00:59:53.376Z,97600.38
2022-11-10T01:02:40.856Z,97608.28
2022-11-10T01:05:27.798Z,97607.31
2022-11-10T01:08:16.177Z,97617.88
2022-11-10T01:11:03.815Z,97624.13
2022-11-10T01:13:52.283Z,97625.09
2022-11-10T01:16:39.383Z,97626.78
2022-11-10T01:19:26.514Z,97615.25
2022-11-10T01:22:13.743Z,97610.94
2022-11-10T01:25:02.578Z,97616.22
2022-11-10T01:27:49.391Z,97619.81
2022-11-10T01:30:36.634Z,97618.00
2022-11-10T01:33:24.146Z,97618.00
2022-11-10T01:36:12.453Z,97616.22
2022-11-10T01:38:59.556Z,97617.03
2022-11-10T01:41:48.162Z,97628.44
2022-11-10T01:44:36.550Z,97635.53
2022-11-10T01:47:23.983Z,97631.91
2022-11-10T01:50:11.173Z,97632.88
2022-11-10T01:53:01.144Z,97629.41
2022-11-10T01:55:49.191Z,97641.66
2022-11-10T01:58:40.313Z,97645.13
2022-11-10T02:01:27.668Z,97640.81
2022-11-10T02:04:16.758Z,97648.72
2022-11-10T02:07:04.002Z,97645.25
2022-11-10T02:09:51.316Z,97651.50
2022-11-10T02:12:38.441Z,97662.91
2022-11-10T02:15:27.813Z,97669.16
2022-11-10T02:18:14.834Z,97671.78
2022-11-10T02:21:05.975Z,97673.47
2022-11-10T02:23:53.966Z,97679.72
2022-11-10T02:26:44.902Z,97676.09
2022-11-10T02:29:31.920Z,97690.28
2022-11-10T02:32:19.089Z,97691.94
2022-11-10T02:35:07.058Z,97690.28
2022-11-10T02:37:55.223Z,97688.59
2022-11-10T02:40:42.624Z,97692.06
2022-11-10T02:43:29.748Z,97694.72
2022-11-10T02:46:16.790Z,97688.59
2022-11-10T02:49:03.828Z,97690.41
2022-11-10T02:51:51.045Z,97692.91
2022-11-10T02:54:39.560Z,97697.47
2022-11-10T02:57:26.612Z,97719.31
2022-11-10T03:00:14.215Z,97710.44
2022-11-10T03:03:02.383Z,97712.50
2022-11-10T03:05:49.556Z,97730.84
2022-11-10T03:08:37.803Z,97732.66
2022-11-10T03:11:31.877Z,97731.81
2022-11-10T03:14:19.244Z,97729.16
2022-11-10T03:17:06.023Z,97730.97
2022-11-10T03:19:53.199Z,97737.09
2022-11-10T03:22:40.496Z,97746.81
2022-11-10T03:25:27.320Z,97747.78
2022-11-10T03:28:15.716Z,97750.41
2022-11-10T03:31:02.884Z,97750.41
2022-11-10T03:33:49.903Z,97760.13
2022-11-10T03:36:37.022Z,97755.69
2022-11-10T03:39:24.405Z,97756.66
2022-11-10T03:42:11.518Z,97767.22
2022-11-10T03:44:59.723Z,97777.78
2022-11-10T03:47:47.417Z,97778.75
2022-11-10T03:50:34.631Z,97784.75
2022-11-10T03:53:21.876Z,97783.06
2022-11-10T03:56:09.773Z,97794.59
2022-11-10T03:58:57.012Z,97799.88
2022-11-10T04:01:45.589Z,97803.47
2022-11-10T04:04:50.800Z,97807.91
2022-11-10T04:07:55.627Z,97812.25
2022-11-10T04:10:43.001Z,97811.53
2022-11-10T04:13:43.905Z,97818.47
2022-11-10T04:16:30.776Z,97818.47
2022-11-10T04:19:19.221Z,97816.81
2022-11-10T04:22:06.389Z,97815.13
2022-11-10T04:24:53.392Z,97825.69
2022-11-10T04:27:40.405Z,97823.03
2022-11-10T04:30:27.653Z,97821.38
2022-11-10T04:33:14.661Z,97823.88
2022-11-10T04:36:03.197Z,97833.72
2022-11-10T04:38:50.442Z,97835.53
2022-11-10T04:41:37.704Z,97840.69
2022-11-10T04:44:24.820Z,97844.28
2022-11-10T04:47:12.239Z,97846.09
2022-11-10T04:49:59.247Z,97847.03
2022-11-10T04:52:47.562Z,97847.03
2022-11-10T04:55:34.386Z,97848.72
2022-11-10T04:58:21.608Z,97866.50
2022-11-10T05:01:09.817Z,97871.78
2022-11-10T05:03:56.835Z,97872.72
2022-11-10T05:06:44.283Z,97874.53
2022-11-10T05:09:33.006Z,97882.56
2022-11-10T05:12:22.303Z,97884.38
2022-11-10T05:15:10.662Z,97887.00
2022-11-10T05:17:57.334Z,97883.53
2022-11-10T05:20:44.520Z,97887.13
2022-11-10T05:23:41.566Z,97889.78
2022-11-10T05:26:29.724Z,97891.56
2022-11-10T05:29:16.904Z,97899.50
2022-11-10T05:32:04.051Z,97904.91
2022-11-10T05:34:51.241Z,97911.97
2022-11-10T05:37:40.508Z,97918.94
2022-11-10T05:40:28.267Z,97920.63
2022-11-10T05:43:16.862Z,97925.91
2022-11-10T05:46:03.892Z,97936.56
2022-11-10T05:48:51.052Z,97934.16
2022-11-10T05:51:38.171Z,97942.09
2022-11-10T05:54:25.471Z,97950.00
2022-11-10T05:57:12.536Z,97945.56
2022-11-10T06:00:00.960Z,97950.00
2022-11-10T06:02:47.964Z,97962.38
2022-11-10T06:05:36.406Z,97956.25
2022-11-10T06:08:24.076Z,97968.59
2022-11-10T06:11:11.056Z,97978.44
2022-11-10T06:13:58.133Z,97977.47
2022-11-10T06:16:46.723Z,97986.34
2022-11-10T06:19:33.739Z,98001.34
2022-11-10T06:22:20.956Z,98005.78
2022-11-10T06:25:09.207Z,98018.28
2022-11-10T06:27:56.431Z,98023.44
2022-11-10T06:30:44.048Z,98028.81
2022-11-10T06:33:32.313Z,98034.84
2022-11-10T06:36:19.507Z,98045.63
2022-11-10T06:39:06.708Z,98053.53
2022-11-10T06:41:54.046Z,98051.63
2022-11-10T06:44:40.971Z,98068.53
2022-11-10T06:47:28.389Z,98071.19
2022-11-10T06:50:17.185Z,98079.09
2022-11-10T06:53:04.942Z,98079.09
2022-11-10T06:55:52.590Z,98091.44
2022-11-10T06:58:39.675Z,98101.28
2022-11-10T07:01:27.234Z,98101.28
2022-11-10T07:04:20.330Z,98097.69
2022-11-10T07:07:09.764Z,98109.81
2022-11-10T07:09:56.516Z,98114.03
2022-11-10T07:12:43.799Z,98117.50
2022-11-10T07:15:31.403Z,98119.19
2022-11-10T07:18:18.468Z,98122.66
2022-11-10T07:21:06.335Z,98129.63
2022-11-10T07:23:54.477Z,98127.00
2022-11-10T07:26:41.723Z,98135.75
2022-11-10T07:29:28.881Z,98131.44
2022-11-10T07:32:16.104Z,98148.97
2022-11-10T07:35:03.306Z,98153.28
2022-11-10T07:37:50.540Z,98158.69
2022-11-10T07:40:39.392Z,98168.16
2022-11-10T07:43:26.945Z,98162.03
2022-11-10T07:46:14.075Z,98170.59
2022-11-10T07:49:01.183Z,98171.41
2022-11-10T07:51:48.148Z,98174.78
2022-11-10T07:54:35.294Z,98184.41
2022-11-10T07:57:23.727Z,98190.63
2022-11-10T08:00:13.211Z,98194.84
2022-11-10T08:03:04.729Z,98202.44
2022-11-10T08:05:51.996Z,98192.72
2022-11-10T08:08:39.300Z,98202.09
2022-11-10T08:11:26.377Z,98199.34
2022-11-10T08:14:14.861Z,98202.59
2022-11-10T08:17:01.805Z,98213.03
2022-11-10T08:19:49.257Z,98215.34
2022-11-10T08:22:36.277Z,98207.41
2022-11-10T08:25:23.498Z,98214.38
2022-11-10T08:28:12.506Z,98212.47
2022-11-10T08:31:06.497Z,98222.19
2022-11-10T08:33:53.858Z,98227.47
2022-11-10T08:36:40.674Z,98240.47
2022-11-10T08:39:38.575Z,98245.84
2022-11-10T08:42:26.659Z,98248.63
2022-11-10T08:45:14.084Z,98255.81
2022-11-10T08:48:03.949Z,98256.75
2022-11-10T08:50:51.780Z,98266.38
2022-11-10T08:53:38.883Z,98269.84
2022-11-10T08:56:26.056Z,98264.56
2022-11-10T08:59:12.902Z,98257.38
2022-11-10T09:02:00.316Z,98267.72
2022-11-10T09:04:49.136Z,98272.69
2022-11-10T09:07:43.818Z,98283.75
2022-11-10T09:10:31.297Z,98280.03
2022-11-10T09:13:23.411Z,98287.72
2022-11-10T09:16:13.516Z,98284.13
2022-11-10T09:19:00.616Z,98282.84
2022-11-10T09:21:49.400Z,98297.41
2022-11-10T09:24:36.695Z,98301.72
2022-11-10T09:27:24.138Z,98299.69
2022-11-10T09:30:17.355Z,98307.13
2022-11-10T09:33:05.174Z,98301.72
2022-11-10T09:35:52.711Z,98312.19
2022-11-10T09:38:40.882Z,98311.69
2022-11-10T09:41:29.876Z,98310.38
2022-11-10T09:44:22.707Z,98315.56
2022-11-10T09:47:18.970Z,98324.44
2022-11-10T09:50:22.730Z,98330.78
2022-11-10T09:53:15.755Z,98336.06
2022-11-10T09:56:05.905Z,98336.06
2022-11-10T09:58:53.385Z,98332.69
2022-11-10T10:01:47.008Z,98332.69
2022-11-10T10:04:51.646Z,98342.53
2022-11-10T10:07:50.913Z,98340.75
2022-11-10T10:10:40.965Z,98342.94
2022-11-10T10:13:43.206Z,98350.88
2022-11-10T10:16:34.683Z,98354.75
2022-11-10T10:19:30.419Z,98364.59
2022-11-10T10:22:32.900Z,98366.66
2022-11-10T10:25:22.138Z,98359.13
2022-11-10T10:28:16.836Z,98366.59
2022-11-10T10:31:16.449Z,98381.28
2022-11-10T10:34:05.157Z,98373.34
2022-11-10T10:36:52.433Z,98370.38
2022-11-10T10:39:42.748Z,98381.56
2022-11-10T10:42:32.757Z,98382.28
2022-11-10T10:45:23.011Z,98380.25
2022-11-10T10:48:26.123Z,98381.84
2022-11-10T10:51:28.836Z,98377.75
2022-11-10T10:54:27.133Z,98374.03
2022-11-10T10:57:22.399Z,98381.84
2022-11-10T11:00:20.798Z,98391.47
2022-11-10T11:03:09.016Z,98385.94
2022-11-10T11:06:06.675Z,98388.25
2022-11-10T11:08:59.965Z,98380.06
2022-11-10T11:12:02.453Z,98371.78
2022-11-10T11:14:49.831Z,98370.47
2022-11-10T11:17:37.458Z,98371.19
2022-11-10T11:20:31.897Z,98360.53
2022-11-10T11:23:35.817Z,98357.66
2022-11-10T11:26:26.681Z,98369.56
2022-11-10T11:29:33.044Z,98368.34
2022-11-10T11:32:28.777Z,98366.19
2022-11-10T11:35:21.305Z,98364.50
2022-11-10T11:38:14.275Z,98371.13
2022-11-10T11:41:16.383Z,98379.19
2022-11-10T11:44:25.387Z,98366.44
2022-11-10T11:47:22.079Z,98375.97
2022-11-10T11:50:21.165Z,98373.91
2022-11-10T11:53:19.291Z,98380.41
2022-11-10T11:56:19.639Z,98391.47
2022-11-10T11:59:25.927Z,98381.00
2022-11-10T12:02:29.497Z,98380.38
2022-11-10T12:05:27.782Z,98384.00
2022-11-10T12:08:24.980Z,98387.59
2022-11-10T12:11:20.284Z,98384.13
2022-11-10T12:14:13.195Z,98383.38
2022-11-10T12:17:07.707Z,98375.56
2022-11-10T12:20:02.318Z,98384.44
2022-11-10T12:22:55.684Z,98380.84
2022-11-10T12:25:48.935Z,98371.97
2022-11-10T12:28:40.681Z,98364.03
2022-11-10T12:31:31.080Z,98363.06
2022-11-10T12:34:27.347Z,98355.97
2022-11-10T12:37:21.212Z,98360.28
2022-11-10T12:40:16.429Z,98354.16
2022-11-10T12:43:10.621Z,98363.06
2022-11-10T12:46:01.669Z,98364.03
2022-11-10T12:48:56.873Z,98357.75
2022-11-10T12:51:48.285Z,98356.06
2022-11-10T12:54:36.027Z,98359.44
2022-11-10T12:57:24.904Z,98360.28
2022-11-10T13:00:28.154Z,98370.75
2022-11-10T13:03:26.795Z,98371.72
2022-11-10T13:06:25.534Z,98373.53
2022-11-10T13:09:26.233Z,98369.06
2022-11-10T13:12:19.380Z,98367.28
2022-11-10T13:15:51.714Z,98360.19
2022-11-10T13:18:57.820Z,98376.91
2022-11-10T13:22:04.852Z,98373.28
2022-11-10T13:24:51.871Z,98371.50
2022-11-10T13:27:54.957Z,98363.44
2022-11-10T13:30:45.378Z,98366.19
2022-11-10T13:33:37.911Z,98358.38
2022-11-10T13:36:39.120Z,98358.38
2022-11-10T13:39:29.122Z,98354.03
2022-11-10T13:42:19.957Z,98360.19
2022-11-10T13:45:34.154Z,98365.34
2022-11-10T13:48:28.966Z,98380.88
2022-11-10T13:51:23.946Z,98384.97
2022-11-10T13:54:32.484Z,98382.09
2022-11-10T13:57:27.618Z,98397.75
2022-11-10T14:00:27.828Z,98401.13
2022-11-10T14:03:48.686Z,98401.72
2022-11-10T14:06:43.358Z,98393.53
2022-11-10T14:09:35.419Z,98399.69
2022-11-10T14:12:26.590Z,98404.03
2022-11-10T14:15:17.569Z,98404.84
2022-11-10T14:18:04.878Z,98403.06
2022-11-10T14:20:56.673Z,98410.03
2022-11-10T14:23:47.049Z,98413.41
2022-11-10T14:26:37.976Z,98426.41
2022-11-10T14:29:38.431Z,98405.00
2022-11-10T14:32:26.563Z,98411.13
2022-11-10T14:35:22.485Z,98414.63
2022-11-10T14:38:20.974Z,98406.69
2022-11-10T14:41:16.347Z,98410.97
2022-11-10T14:44:06.233Z,98412.94
2022-11-10T14:46:53.353Z,98411.25
2022-11-10T14:49:40.387Z,98407.88
2022-11-10T14:52:27.570Z,98406.78
2022-11-10T14:55:18.900Z,98404.28
2022-11-10T14:58:13.496Z,98400.66
2022-11-10T15:01:02.686Z,98410.53
2022-11-10T15:03:49.937Z,98411.50
2022-11-10T15:06:37.177Z,98421.34
2022-11-10T15:09:26.887Z,98426.66
2022-11-10T15:12:26.476Z,98426.78
2022-11-10T15:15:20.620Z,98425.09
2022-11-10T15:18:25.172Z,98434.84
2022-11-10T15:21:13.538Z,98439.28
2022-11-10T15:24:02.879Z,98446.50
2022-11-10T15:26:50.085Z,98458.06
2022-11-10T15:29:37.959Z,98459.00
2022-11-10T15:32:30.899Z,98469.72
2022-11-10T15:35:29.712Z,98468.03
2022-11-10T15:38:29.280Z,98476.09
2022-11-10T15:41:26.606Z,98479.69
2022-11-10T15:44:18.766Z,98471.88
2022-11-10T15:47:06.419Z,98473.69
2022-11-10T15:49:53.799Z,98467.53
2022-11-10T15:52:41.985Z,98476.44
2022-11-10T15:55:30.896Z,98480.03
2022-11-10T15:58:19.423Z,98483.66
2022-11-10T16:01:06.691Z,98482.81
2022-11-10T16:03:54.089Z,98487.25
2022-11-10T16:06:41.131Z,98488.22
2022-11-10T16:09:29.693Z,98490.88
2022-11-10T16:12:19.901Z,98497.97
2022-11-10T16:15:07.818Z,98509.50
2022-11-10T16:17:55.141Z,98513.13
2022-11-10T16:20:42.465Z,98515.75
2022-11-10T16:23:29.585Z,98513.22
2022-11-10T16:26:19.794Z,98509.75
2022-11-10T16:29:12.112Z,98518.63
2022-11-10T16:31:59.298Z,98514.31
2022-11-10T16:34:46.486Z,98532.84
2022-11-10T16:37:35.057Z,98524.16
2022-11-10T16:40:24.643Z,98533.91
2022-11-10T16:43:16.267Z,98530.53
2022-11-10T16:46:05.773Z,98544.59
2022-11-10T16:48:54.956Z,98541.84
2022-11-10T16:51:48.343Z,98553.38
2022-11-10T16:54:35.995Z,98545.66
2022-11-10T16:57:23.090Z,98553.63
2022-11-10T17:00:13.025Z,98557.09
2022-11-10T17:03:02.580Z,98551.94
2022-11-10T17:05:49.830Z,98556.38
2022-11-10T17:08:36.986Z,98559.09
2022-11-10T17:11:24.188Z,98562.63
2022-11-10T17:14:14.191Z,98566.31
2022-11-10T17:17:03.502Z,98567.16
2022-11-10T17:19:51.896Z,98568.09
2022-11-10T17:22:38.966Z,98564.63
2022-11-10T17:25:27.925Z,98567.50
2022-11-10T17:28:18.064Z,98566.63
2022-11-10T17:31:05.902Z,98555.22
2022-11-10T17:33:54.765Z,98558.81
2022-11-10T17:36:41.931Z,98562.41
2022-11-10T17:39:29.226Z,98565.06
2022-11-10T17:42:16.055Z,98566.97
2022-11-10T17:45:03.094Z,98574.06
2022-11-10T17:47:51.007Z,98581.16
2022-11-10T17:50:42.272Z,98593.66
2022-11-10T17:53:29.417Z,98593.66
2022-11-10T17:56:16.273Z,98597.25
2022-11-10T17:59:03.541Z,98611.44
2022-11-10T18:01:51.049Z,98609.75
2022-11-10T18:04:38.206Z,98612.50
2022-11-10T18:07:26.634Z,98615.16
2022-11-10T18:10:15.289Z,98617.91
2022-11-10T18:13:02.346Z,98615.25
2022-11-10T18:15:50.491Z,98618.03
2022-11-10T18:18:38.244Z,98614.53
2022-11-10T18:21:25.480Z,98615.47
2022-11-10T18:24:13.759Z,98606.69
2022-11-10T18:27:00.913Z,98602.38
2022-11-10T18:29:48.381Z,98594.53
2022-11-10T18:32:35.507Z,98590.22
2022-11-10T18:35:36.843Z,98592.97
2022-11-10T18:38:43.366Z,98593.81
2022-11-10T18:41:49.862Z,98593.09
2022-11-10T18:44:37.769Z,98594.06
2022-11-10T18:47:25.061Z,98608.13
2022-11-10T18:50:12.106Z,98607.28
2022-11-10T18:52:58.867Z,98607.50
2022-11-10T18:55:54.591Z,98603.16
2022-11-10T18:58:43.092Z,98608.47
2022-11-10T19:01:30.217Z,98604.13
2022-11-10T19:04:17.408Z,98604.97
2022-11-10T19:07:04.594Z,98609.53
2022-11-10T19:09:51.857Z,98606.03
2022-11-10T19:12:39.338Z,98614.91
2022-11-10T19:15:27.937Z,98613.22
2022-11-10T19:18:15.133Z,98616.81
2022-11-10T19:21:05.554Z,98615.97
2022-11-10T19:23:55.572Z,98617.88
2022-11-10T19:26:42.736Z,98615.25
2022-11-10T19:29:29.790Z,98622.34
2022-11-10T19:32:23.602Z,98634.72
2022-11-10T19:35:13.314Z,98640.94
2022-11-10T19:38:00.140Z,98655.97
2022-11-10T19:40:47.360Z,98659.56
2022-11-10T19:43:34.926Z,98667.50
2022-11-10T19:46:23.981Z,98669.31
2022-11-10T19:49:12.320Z,98669.41
2022-11-10T19:51:59.855Z,98659.78
2022-11-10T19:54:47.103Z,98659.88
2022-11-10T19:57:34.067Z,98665.19
2022-11-10T20:00:21.332Z,98673.22
2022-11-10T20:03:11.478Z,98660.94
2022-11-10T20:06:00.766Z,98675.13
2022-11-10T20:08:48.266Z,98676.06
2022-11-10T20:11:35.723Z,98682.22
2022-11-10T20:14:23.065Z,98684.84
2022-11-10T20:17:09.986Z,98695.44
2022-11-10T20:19:57.171Z,98687.72
2022-11-10T20:22:45.760Z,98696.59
2022-11-10T20:25:33.284Z,98704.63
2022-11-10T20:28:20.080Z,98704.63
2022-11-10T20:31:09.580Z,98701.25
2022-11-10T20:33:56.990Z,98711.72
2022-11-10T20:36:44.212Z,98704.00
2022-11-10T20:39:32.732Z,98707.59
2022-11-10T20:42:19.764Z,98710.34
2022-11-10T20:45:07.891Z,98709.59
2022-11-10T20:47:54.714Z,98714.03
2022-11-10T20:50:43.972Z,98711.59
2022-11-10T20:53:31.757Z,98717.63
2022-11-10T20:56:24.074Z,98710.75
2022-11-10T20:59:14.413Z,98703.78
2022-11-10T21:02:01.513Z,98709.06
2022-11-10T21:04:48.607Z,98698.59
2022-11-10T21:07:35.597Z,98704.81
2022-11-10T21:10:22.809Z,98695.31
2022-11-10T21:13:11.223Z,98693.63
2022-11-10T21:15:59.579Z,98697.22
2022-11-10T21:18:46.952Z,98700.69
2022-11-10T21:21:35.061Z,98711.38
2022-11-10T21:24:22.292Z,98710.53
2022-11-10T21:27:10.988Z,98701.00
2022-11-10T21:29:59.308Z,98702.81
2022-11-10T21:32:46.554Z,98709.88
2022-11-10T21:35:38.183Z,98716.22
2022-11-10T21:38:25.211Z,98716.22
2022-11-10T21:41:12.616Z,98713.69
2022-11-10T21:43:59.840Z,98697.94
2022-11-10T21:46:48.299Z,98707.66
2022-11-10T21:49:35.511Z,98709.47
2022-11-10T21:52:22.694Z,98711.34
2022-11-10T21:55:10.442Z,98714.84
2022-11-10T21:57:58.868Z,98714.94
2022-11-10T22:00:45.807Z,98716.75
2022-11-10T22:03:35.416Z,98714.19
2022-11-10T22:06:22.550Z,98713.34
2022-11-10T22:09:09.941Z,98720.53
2022-11-10T22:12:14.476Z,98723.28
2022-11-10T22:15:19.588Z,98720.63
2022-11-10T22:18:30.556Z,98717.16
2022-11-10T22:21:18.858Z,98723.53
2022-11-10T22:24:24.104Z,98724.38
2022-11-10T22:27:11.039Z,98726.22
2022-11-10T22:29:58.218Z,98715.75
2022-11-10T22:32:45.529Z,98723.69
2022-11-10T22:35:45.098Z,98718.50
2022-11-10T22:38:35.309Z,98709.72
2022-11-10T22:41:40.224Z,98709.00
2022-11-10T22:44:27.704Z,98719.56
2022-11-10T22:47:15.432Z,98729.28
2022-11-10T22:50:02.796Z,98736.34
2022-11-10T22:52:50.111Z,98726.72
2022-11-10T22:55:38.966Z,98732.03
2022-11-10T22:58:26.322Z,98727.69
2022-11-10T23:01:13.949Z,98723.16
2022-11-10T23:04:01.916Z,98737.41
2022-11-10T23:06:51.367Z,98719.84
2022-11-10T23:09:39.646Z,98726.94
2022-11-10T23:12:28.260Z,98723.56
2022-11-10T23:15:15.419Z,98718.16
2022-11-10T23:18:06.615Z,98716.56
2022-11-10T23:20:58.356Z,98718.25
2022-11-10T23:23:47.387Z,98717.53
2022-11-10T23:26:34.901Z,98721.00
2022-11-10T23:29:23.319Z,98714.03
2022-11-10T23:32:10.437Z,98715.94
2022-11-10T23:34:57.516Z,98715.94
2022-11-10T23:37:45.117Z,98705.47
2022-11-10T23:40:32.303Z,98714.22
2022-11-10T23:43:19.524Z,98716.78
2022-11-10T23:46:08.536Z,98728.38
2022-11-10T23:48:55.750Z,98725.00
2022-11-10T23:51:43.013Z,98723.31
2022-11-10T23:54:30.063Z,98723.31
2022-11-10T23:57:17.325Z,98717.28
